sensor_id;sensor_type;location;lat;lon;timestamp;temperature;humidity
11619;DHT22;5865;48.776;9.280;2023-08-06T00:00:50;15.00;99.90
11619;DHT22;5865;48.776;9.280;2023-08-06T00:03:16;15.00;99.90
11619;DHT22;5865;48.776;9.280;2023-08-06T00:05:45;15.00;99.90
11619;DHT22;5865;48.776;9.280;2023-08-06T00:08:11;15.00;99.90
11619;DHT22;5865;48.776;9.280;2023-08-06T00:10:39;14.90;99.90
11619;DHT22;5865;48.776;9.280;2023-08-06T00:13:06;14.70;99.90
11619;DHT22;5865;48.776;9.280;2023-08-06T00:15:33;14.60;99.90
11619;DHT22;5865;48.776;9.280;2023-08-06T00:18:00;14.50;99.90
11619;DHT22;5865;48.776;9.280;2023-08-06T00:20:27;14.40;99.90
11619;DHT22;5865;48.776;9.280;2023-08-06T00:25:22;14.20;99.90
11619;DHT22;5865;48.776;9.280;2023-08-06T00:27:49;14.10;99.90
11619;DHT22;5865;48.776;9.280;2023-08-06T00:30:17;14.10;99.90
11619;DHT22;5865;48.776;9.280;2023-08-06T00:35:11;14.30;99.90
11619;DHT22;5865;48.776;9.280;2023-08-06T00:37:39;14.20;99.90
11619;DHT22;5865;48.776;9.280;2023-08-06T00:40:08;14.10;99.90
11619;DHT22;5865;48.776;9.280;2023-08-06T00:42:35;14.00;99.90
11619;DHT22;5865;48.776;9.280;2023-08-06T00:45:02;14.00;99.90
11619;DHT22;5865;48.776;9.280;2023-08-06T00:47:29;13.90;99.90
11619;DHT22;5865;48.776;9.280;2023-08-06T00:49:56;13.60;99.90
11619;DHT22;5865;48.776;9.280;2023-08-06T00:52:23;13.50;99.90
11619;DHT22;5865;48.776;9.280;2023-08-06T00:54:50;13.40;99.90
11619;DHT22;5865;48.776;9.280;2023-08-06T00:57:18;13.50;99.90
11619;DHT22;5865;48.776;9.280;2023-08-06T01:02:13;13.60;99.90
11619;DHT22;5865;48.776;9.280;2023-08-06T01:04:41;13.50;99.90
11619;DHT22;5865;48.776;9.280;2023-08-06T01:07:15;13.50;99.90
11619;DHT22;5865;48.776;9.280;2023-08-06T01:09:50;13.40;99.90
11619;DHT22;5865;48.776;9.280;2023-08-06T01:12:28;13.30;99.90
11619;DHT22;5865;48.776;9.280;2023-08-06T01:15:04;13.30;99.90
11619;DHT22;5865;48.776;9.280;2023-08-06T01:17:33;13.10;99.90
11619;DHT22;5865;48.776;9.280;2023-08-06T01:20:00;13.10;99.90
11619;DHT22;5865;48.776;9.280;2023-08-06T01:22:29;13.10;99.90
11619;DHT22;5865;48.776;9.280;2023-08-06T01:24:55;13.20;99.90
11619;DHT22;5865;48.776;9.280;2023-08-06T01:27:28;13.20;99.90
11619;DHT22;5865;48.776;9.280;2023-08-06T01:30:02;13.30;99.90
11619;DHT22;5865;48.776;9.280;2023-08-06T01:32:32;13.40;99.90
11619;DHT22;5865;48.776;9.280;2023-08-06T01:37:31;13.40;99.90
11619;DHT22;5865;48.776;9.280;2023-08-06T01:39:58;13.50;99.90
11619;DHT22;5865;48.776;9.280;2023-08-06T01:42:25;13.60;99.90
11619;DHT22;5865;48.776;9.280;2023-08-06T01:47:19;13.70;99.90
11619;DHT22;5865;48.776;9.280;2023-08-06T01:49:46;13.70;99.90
11619;DHT22;5865;48.776;9.280;2023-08-06T01:52:13;13.70;99.90
11619;DHT22;5865;48.776;9.280;2023-08-06T01:54:41;13.70;99.90
11619;DHT22;5865;48.776;9.280;2023-08-06T01:59:35;13.70;99.90
11619;DHT22;5865;48.776;9.280;2023-08-06T02:02:02;13.70;99.90
11619;DHT22;5865;48.776;9.280;2023-08-06T02:04:29;13.60;99.90
11619;DHT22;5865;48.776;9.280;2023-08-06T02:09:23;13.50;99.90
11619;DHT22;5865;48.776;9.280;2023-08-06T02:11:52;13.40;99.90
11619;DHT22;5865;48.776;9.280;2023-08-06T02:14:19;13.00;99.90
11619;DHT22;5865;48.776;9.280;2023-08-06T02:16:46;13.30;99.90
11619;DHT22;5865;48.776;9.280;2023-08-06T02:19:13;13.20;99.90
11619;DHT22;5865;48.776;9.280;2023-08-06T02:21:40;13.10;99.90
11619;DHT22;5865;48.776;9.280;2023-08-06T02:24:06;13.10;99.90
11619;DHT22;5865;48.776;9.280;2023-08-06T02:26:33;13.00;99.90
11619;DHT22;5865;48.776;9.280;2023-08-06T02:29:01;13.10;99.90
11619;DHT22;5865;48.776;9.280;2023-08-06T02:31:28;13.10;99.90
11619;DHT22;5865;48.776;9.280;2023-08-06T02:36:24;13.00;99.90
11619;DHT22;5865;48.776;9.280;2023-08-06T02:38:54;13.00;99.90
11619;DHT22;5865;48.776;9.280;2023-08-06T02:43:49;12.60;99.90
11619;DHT22;5865;48.776;9.280;2023-08-06T02:46:18;12.30;99.90
11619;DHT22;5865;48.776;9.280;2023-08-06T02:48:45;12.40;99.90
11619;DHT22;5865;48.776;9.280;2023-08-06T02:51:12;12.40;99.90
11619;DHT22;5865;48.776;9.280;2023-08-06T02:53:39;12.30;99.90
11619;DHT22;5865;48.776;9.280;2023-08-06T02:56:10;12.20;99.90
11619;DHT22;5865;48.776;9.280;2023-08-06T02:58:50;12.10;99.90
11619;DHT22;5865;48.776;9.280;2023-08-06T03:01:29;12.10;99.90
11619;DHT22;5865;48.776;9.280;2023-08-06T03:04:03;12.10;99.90
11619;DHT22;5865;48.776;9.280;2023-08-06T03:06:35;12.30;99.90
11619;DHT22;5865;48.776;9.280;2023-08-06T03:09:03;12.40;99.90
11619;DHT22;5865;48.776;9.280;2023-08-06T03:11:29;12.50;99.90
11619;DHT22;5865;48.776;9.280;2023-08-06T03:14:02;12.50;99.90
11619;DHT22;5865;48.776;9.280;2023-08-06T03:16:31;12.50;99.90
11619;DHT22;5865;48.776;9.280;2023-08-06T03:18:59;12.50;99.90
11619;DHT22;5865;48.776;9.280;2023-08-06T03:21:26;12.60;99.90
11619;DHT22;5865;48.776;9.280;2023-08-06T03:23:53;12.70;99.90
11619;DHT22;5865;48.776;9.280;2023-08-06T03:26:24;12.70;99.90
11619;DHT22;5865;48.776;9.280;2023-08-06T03:31:19;12.90;99.90
11619;DHT22;5865;48.776;9.280;2023-08-06T03:33:48;12.90;99.90
11619;DHT22;5865;48.776;9.280;2023-08-06T03:38:48;13.00;99.90
11619;DHT22;5865;48.776;9.280;2023-08-06T03:41:16;13.10;99.90
11619;DHT22;5865;48.776;9.280;2023-08-06T03:43:44;13.10;99.90
11619;DHT22;5865;48.776;9.280;2023-08-06T03:46:18;13.10;99.90
11619;DHT22;5865;48.776;9.280;2023-08-06T03:48:45;13.10;99.90
11619;DHT22;5865;48.776;9.280;2023-08-06T03:51:13;13.00;99.90
11619;DHT22;5865;48.776;9.280;2023-08-06T03:53:43;13.10;99.90
11619;DHT22;5865;48.776;9.280;2023-08-06T03:56:10;13.10;99.90
11619;DHT22;5865;48.776;9.280;2023-08-06T03:58:37;13.10;99.90
11619;DHT22;5865;48.776;9.280;2023-08-06T04:03:44;13.30;99.90
11619;DHT22;5865;48.776;9.280;2023-08-06T04:06:13;13.30;99.90
11619;DHT22;5865;48.776;9.280;2023-08-06T04:08:40;13.30;99.90
11619;DHT22;5865;48.776;9.280;2023-08-06T04:11:07;13.30;99.90
11619;DHT22;5865;48.776;9.280;2023-08-06T04:13:34;13.40;99.90
11619;DHT22;5865;48.776;9.280;2023-08-06T04:16:01;13.40;99.90
11619;DHT22;5865;48.776;9.280;2023-08-06T04:18:29;13.30;99.90
11619;DHT22;5865;48.776;9.280;2023-08-06T04:20:56;13.30;99.90
11619;DHT22;5865;48.776;9.280;2023-08-06T04:23:24;13.20;99.90
11619;DHT22;5865;48.776;9.280;2023-08-06T04:25:56;13.30;99.90
11619;DHT22;5865;48.776;9.280;2023-08-06T04:28:25;13.30;99.90
11619;DHT22;5865;48.776;9.280;2023-08-06T04:35:47;13.30;99.90
11619;DHT22;5865;48.776;9.280;2023-08-06T04:40:42;13.20;99.90
11619;DHT22;5865;48.776;9.280;2023-08-06T04:45:37;13.20;99.90
11619;DHT22;5865;48.776;9.280;2023-08-06T04:48:04;13.20;99.90
11619;DHT22;5865;48.776;9.280;2023-08-06T04:50:31;13.10;99.90
11619;DHT22;5865;48.776;9.280;2023-08-06T04:52:58;13.10;99.90
11619;DHT22;5865;48.776;9.280;2023-08-06T04:55:24;13.10;99.90
11619;DHT22;5865;48.776;9.280;2023-08-06T04:57:53;13.10;99.90
11619;DHT22;5865;48.776;9.280;2023-08-06T05:00:20;13.10;99.90
11619;DHT22;5865;48.776;9.280;2023-08-06T05:02:47;13.10;99.90
11619;DHT22;5865;48.776;9.280;2023-08-06T05:05:13;13.20;99.90
11619;DHT22;5865;48.776;9.280;2023-08-06T05:07:40;13.30;99.90
11619;DHT22;5865;48.776;9.280;2023-08-06T05:10:08;13.40;99.90
11619;DHT22;5865;48.776;9.280;2023-08-06T05:12:35;13.60;99.90
11619;DHT22;5865;48.776;9.280;2023-08-06T05:15:04;13.70;99.90
11619;DHT22;5865;48.776;9.280;2023-08-06T05:17:31;13.80;99.90
11619;DHT22;5865;48.776;9.280;2023-08-06T05:19:58;13.80;99.90
11619;DHT22;5865;48.776;9.280;2023-08-06T05:22:25;13.90;99.90
11619;DHT22;5865;48.776;9.280;2023-08-06T05:24:52;14.00;99.90
11619;DHT22;5865;48.776;9.280;2023-08-06T05:27:19;14.10;99.90
11619;DHT22;5865;48.776;9.280;2023-08-06T05:29:47;14.10;99.90
11619;DHT22;5865;48.776;9.280;2023-08-06T05:32:15;14.10;99.90
11619;DHT22;5865;48.776;9.280;2023-08-06T05:34:42;14.20;99.90
11619;DHT22;5865;48.776;9.280;2023-08-06T05:37:09;14.30;99.90
11619;DHT22;5865;48.776;9.280;2023-08-06T05:39:36;14.50;99.90
11619;DHT22;5865;48.776;9.280;2023-08-06T05:42:04;14.90;99.90
11619;DHT22;5865;48.776;9.280;2023-08-06T05:44:31;15.10;99.90
11619;DHT22;5865;48.776;9.280;2023-08-06T05:46:58;15.50;99.90
11619;DHT22;5865;48.776;9.280;2023-08-06T05:49:26;15.80;99.90
11619;DHT22;5865;48.776;9.280;2023-08-06T05:51:53;16.00;99.90
11619;DHT22;5865;48.776;9.280;2023-08-06T05:54:20;16.10;99.90
11619;DHT22;5865;48.776;9.280;2023-08-06T05:56:47;16.10;99.90
11619;DHT22;5865;48.776;9.280;2023-08-06T05:59:14;16.40;99.90
11619;DHT22;5865;48.776;9.280;2023-08-06T06:01:41;15.90;99.90
11619;DHT22;5865;48.776;9.280;2023-08-06T06:04:08;15.90;99.90
11619;DHT22;5865;48.776;9.280;2023-08-06T06:06:36;15.80;99.90
11619;DHT22;5865;48.776;9.280;2023-08-06T06:09:03;15.80;99.90
11619;DHT22;5865;48.776;9.280;2023-08-06T06:11:30;15.70;99.90
11619;DHT22;5865;48.776;9.280;2023-08-06T06:13:57;15.70;99.90
11619;DHT22;5865;48.776;9.280;2023-08-06T06:16:23;15.50;99.90
11619;DHT22;5865;48.776;9.280;2023-08-06T06:18:51;15.50;99.90
11619;DHT22;5865;48.776;9.280;2023-08-06T06:21:20;15.50;99.90
11619;DHT22;5865;48.776;9.280;2023-08-06T06:23:48;15.60;99.90
11619;DHT22;5865;48.776;9.280;2023-08-06T06:26:16;15.50;99.90
11619;DHT22;5865;48.776;9.280;2023-08-06T06:28:43;15.50;99.90
11619;DHT22;5865;48.776;9.280;2023-08-06T06:31:10;15.70;99.90
11619;DHT22;5865;48.776;9.280;2023-08-06T06:33:37;15.90;99.90
11619;DHT22;5865;48.776;9.280;2023-08-06T06:36:04;15.80;99.90
11619;DHT22;5865;48.776;9.280;2023-08-06T06:38:33;15.70;99.90
11619;DHT22;5865;48.776;9.280;2023-08-06T06:41:01;15.40;99.90
11619;DHT22;5865;48.776;9.280;2023-08-06T06:43:29;15.40;99.90
11619;DHT22;5865;48.776;9.280;2023-08-06T06:45:56;15.40;99.90
11619;DHT22;5865;48.776;9.280;2023-08-06T06:48:25;15.60;99.90
11619;DHT22;5865;48.776;9.280;2023-08-06T06:50:52;15.60;99.90
11619;DHT22;5865;48.776;9.280;2023-08-06T06:53:19;15.70;99.90
11619;DHT22;5865;48.776;9.280;2023-08-06T06:55:46;15.70;99.90
11619;DHT22;5865;48.776;9.280;2023-08-06T06:58:16;15.70;99.90
11619;DHT22;5865;48.776;9.280;2023-08-06T07:03:10;16.10;99.90
11619;DHT22;5865;48.776;9.280;2023-08-06T07:05:37;16.30;99.90
11619;DHT22;5865;48.776;9.280;2023-08-06T07:08:04;16.00;99.90
11619;DHT22;5865;48.776;9.280;2023-08-06T07:10:31;15.90;99.90
11619;DHT22;5865;48.776;9.280;2023-08-06T07:12:57;15.90;99.90
11619;DHT22;5865;48.776;9.280;2023-08-06T07:15:26;15.90;99.90
11619;DHT22;5865;48.776;9.280;2023-08-06T07:17:53;15.70;99.90
11619;DHT22;5865;48.776;9.280;2023-08-06T07:22:46;15.80;99.90
11619;DHT22;5865;48.776;9.280;2023-08-06T07:25:13;15.90;99.90
11619;DHT22;5865;48.776;9.280;2023-08-06T07:27:40;15.70;99.90
11619;DHT22;5865;48.776;9.280;2023-08-06T07:30:08;15.50;99.90
11619;DHT22;5865;48.776;9.280;2023-08-06T10:45:26;15.70;99.90
11619;DHT22;5865;48.776;9.280;2023-08-06T10:47:55;15.80;99.90
11619;DHT22;5865;48.776;9.280;2023-08-06T10:50:23;16.20;99.90
11619;DHT22;5865;48.776;9.280;2023-08-06T10:52:50;16.00;99.90
11619;DHT22;5865;48.776;9.280;2023-08-06T10:55:24;16.00;99.90
11619;DHT22;5865;48.776;9.280;2023-08-06T10:57:52;16.00;99.90
11619;DHT22;5865;48.776;9.280;2023-08-06T11:00:20;16.20;99.90
11619;DHT22;5865;48.776;9.280;2023-08-06T11:02:49;16.00;99.90
11619;DHT22;5865;48.776;9.280;2023-08-06T11:05:17;15.80;99.90
11619;DHT22;5865;48.776;9.280;2023-08-06T11:10:13;15.90;99.90
11619;DHT22;5865;48.776;9.280;2023-08-06T11:12:41;15.90;99.90
11619;DHT22;5865;48.776;9.280;2023-08-06T11:15:08;15.80;99.90
11619;DHT22;5865;48.776;9.280;2023-08-06T11:20:06;15.50;99.90
11619;DHT22;5865;48.776;9.280;2023-08-06T11:22:33;15.50;99.90
11619;DHT22;5865;48.776;9.280;2023-08-06T11:25:02;15.60;99.90
11619;DHT22;5865;48.776;9.280;2023-08-06T11:27:29;15.80;99.90
11619;DHT22;5865;48.776;9.280;2023-08-06T11:32:23;16.00;99.90
11619;DHT22;5865;48.776;9.280;2023-08-06T11:34:50;16.00;99.90
11619;DHT22;5865;48.776;9.280;2023-08-06T11:37:22;16.10;99.90
11619;DHT22;5865;48.776;9.280;2023-08-06T11:42:18;16.30;99.90
11619;DHT22;5865;48.776;9.280;2023-08-06T11:44:45;16.20;99.90
11619;DHT22;5865;48.776;9.280;2023-08-06T11:47:14;16.10;99.90
11619;DHT22;5865;48.776;9.280;2023-08-06T11:49:43;16.00;99.90
11619;DHT22;5865;48.776;9.280;2023-08-06T11:52:13;16.10;99.90
11619;DHT22;5865;48.776;9.280;2023-08-06T11:54:42;16.10;99.90
11619;DHT22;5865;48.776;9.280;2023-08-06T11:57:10;15.90;99.90
11619;DHT22;5865;48.776;9.280;2023-08-06T11:59:38;15.90;99.90
11619;DHT22;5865;48.776;9.280;2023-08-06T12:02:08;16.20;99.90
11619;DHT22;5865;48.776;9.280;2023-08-06T12:04:56;16.20;99.90
11619;DHT22;5865;48.776;9.280;2023-08-06T12:07:26;15.70;99.90
11619;DHT22;5865;48.776;9.280;2023-08-06T12:09:55;15.70;99.90
11619;DHT22;5865;48.776;9.280;2023-08-06T12:12:22;15.00;99.90
11619;DHT22;5865;48.776;9.280;2023-08-06T12:14:49;14.80;99.90
11619;DHT22;5865;48.776;9.280;2023-08-06T12:17:16;14.60;99.90
11619;DHT22;5865;48.776;9.280;2023-08-06T12:19:45;14.40;99.90
11619;DHT22;5865;48.776;9.280;2023-08-06T12:22:13;14.30;99.90
11619;DHT22;5865;48.776;9.280;2023-08-06T12:24:41;14.30;99.90
11619;DHT22;5865;48.776;9.280;2023-08-06T12:27:09;14.30;99.90
11619;DHT22;5865;48.776;9.280;2023-08-06T12:29:39;14.30;99.90
11619;DHT22;5865;48.776;9.280;2023-08-06T12:32:07;14.20;99.90
11619;DHT22;5865;48.776;9.280;2023-08-06T12:34:34;14.20;99.90
11619;DHT22;5865;48.776;9.280;2023-08-06T12:37:02;14.20;99.90
11619;DHT22;5865;48.776;9.280;2023-08-06T12:39:29;14.20;99.90
11619;DHT22;5865;48.776;9.280;2023-08-06T12:41:57;14.30;99.90
11619;DHT22;5865;48.776;9.280;2023-08-06T12:44:25;14.50;99.90
11619;DHT22;5865;48.776;9.280;2023-08-06T12:46:53;14.80;99.90
11619;DHT22;5865;48.776;9.280;2023-08-06T12:49:20;14.90;99.90
11619;DHT22;5865;48.776;9.280;2023-08-06T12:51:47;15.30;99.90
11619;DHT22;5865;48.776;9.280;2023-08-06T12:54:15;15.70;99.90
11619;DHT22;5865;48.776;9.280;2023-08-06T12:56:42;16.30;99.90
11619;DHT22;5865;48.776;9.280;2023-08-06T12:59:09;16.50;99.90
11619;DHT22;5865;48.776;9.280;2023-08-06T13:01:38;17.00;99.90
11619;DHT22;5865;48.776;9.280;2023-08-06T13:04:05;17.40;99.90
11619;DHT22;5865;48.776;9.280;2023-08-06T13:06:32;17.50;99.90
11619;DHT22;5865;48.776;9.280;2023-08-06T13:09:02;17.70;99.90
11619;DHT22;5865;48.776;9.280;2023-08-06T13:11:29;17.40;99.90
11619;DHT22;5865;48.776;9.280;2023-08-06T13:14:00;16.80;99.90
11619;DHT22;5865;48.776;9.280;2023-08-06T13:16:30;16.80;99.90
11619;DHT22;5865;48.776;9.280;2023-08-06T13:18:58;17.00;99.90
11619;DHT22;5865;48.776;9.280;2023-08-06T13:21:34;17.40;99.90
11619;DHT22;5865;48.776;9.280;2023-08-06T13:24:02;17.60;99.90
11619;DHT22;5865;48.776;9.280;2023-08-06T13:26:29;17.80;99.90
11619;DHT22;5865;48.776;9.280;2023-08-06T13:28:57;17.60;99.90
11619;DHT22;5865;48.776;9.280;2023-08-06T13:31:24;17.30;99.90
11619;DHT22;5865;48.776;9.280;2023-08-06T13:33:51;17.00;99.90
11619;DHT22;5865;48.776;9.280;2023-08-06T13:36:22;17.20;99.90
11619;DHT22;5865;48.776;9.280;2023-08-06T13:38:49;17.40;99.90
11619;DHT22;5865;48.776;9.280;2023-08-06T13:41:16;17.50;99.90
11619;DHT22;5865;48.776;9.280;2023-08-06T13:43:43;17.70;99.90
11619;DHT22;5865;48.776;9.280;2023-08-06T13:46:11;17.30;99.90
11619;DHT22;5865;48.776;9.280;2023-08-06T13:48:41;17.00;99.90
11619;DHT22;5865;48.776;9.280;2023-08-06T13:51:09;17.30;99.90
11619;DHT22;5865;48.776;9.280;2023-08-06T13:53:37;17.10;99.90
11619;DHT22;5865;48.776;9.280;2023-08-06T13:56:04;17.10;99.90
11619;DHT22;5865;48.776;9.280;2023-08-06T13:58:32;17.20;99.90
11619;DHT22;5865;48.776;9.280;2023-08-06T14:00:59;17.50;99.90
11619;DHT22;5865;48.776;9.280;2023-08-06T14:03:26;17.40;99.90
11619;DHT22;5865;48.776;9.280;2023-08-06T14:05:53;17.10;99.90
11619;DHT22;5865;48.776;9.280;2023-08-06T14:08:22;17.10;99.90
11619;DHT22;5865;48.776;9.280;2023-08-06T14:10:50;16.90;99.90
11619;DHT22;5865;48.776;9.280;2023-08-06T14:13:17;16.80;99.90
11619;DHT22;5865;48.776;9.280;2023-08-06T14:15:44;16.70;99.90
11619;DHT22;5865;48.776;9.280;2023-08-06T14:18:13;16.70;99.90
11619;DHT22;5865;48.776;9.280;2023-08-06T14:20:40;16.60;99.90
11619;DHT22;5865;48.776;9.280;2023-08-06T14:23:07;16.60;99.90
11619;DHT22;5865;48.776;9.280;2023-08-06T14:25:34;17.10;99.90
11619;DHT22;5865;48.776;9.280;2023-08-06T14:28:03;17.20;99.90
11619;DHT22;5865;48.776;9.280;2023-08-06T14:30:31;17.40;99.90
11619;DHT22;5865;48.776;9.280;2023-08-06T14:32:58;17.30;99.90
11619;DHT22;5865;48.776;9.280;2023-08-06T14:35:26;17.40;99.90
11619;DHT22;5865;48.776;9.280;2023-08-06T14:37:53;17.30;99.90
11619;DHT22;5865;48.776;9.280;2023-08-06T14:40:20;17.50;99.90
11619;DHT22;5865;48.776;9.280;2023-08-06T14:42:47;17.60;99.90
11619;DHT22;5865;48.776;9.280;2023-08-06T14:45:15;17.30;99.90
11619;DHT22;5865;48.776;9.280;2023-08-06T14:47:42;17.30;99.90
11619;DHT22;5865;48.776;9.280;2023-08-06T14:50:09;17.00;99.90
11619;DHT22;5865;48.776;9.280;2023-08-06T14:52:36;16.70;99.90
11619;DHT22;5865;48.776;9.280;2023-08-06T14:55:04;16.40;99.90
11619;DHT22;5865;48.776;9.280;2023-08-06T14:57:31;15.90;99.90
11619;DHT22;5865;48.776;9.280;2023-08-06T14:59:58;15.70;99.90
11619;DHT22;5865;48.776;9.280;2023-08-06T15:02:27;15.70;99.90
11619;DHT22;5865;48.776;9.280;2023-08-06T15:04:54;15.70;99.90
11619;DHT22;5865;48.776;9.280;2023-08-06T15:07:21;15.90;99.90
11619;DHT22;5865;48.776;9.280;2023-08-06T15:09:48;15.90;99.90
11619;DHT22;5865;48.776;9.280;2023-08-06T15:12:15;15.80;99.90
11619;DHT22;5865;48.776;9.280;2023-08-06T15:14:43;15.90;99.90
11619;DHT22;5865;48.776;9.280;2023-08-06T15:17:09;16.10;99.90
11619;DHT22;5865;48.776;9.280;2023-08-06T15:19:38;16.00;99.90
11619;DHT22;5865;48.776;9.280;2023-08-06T15:22:05;16.30;99.90
11619;DHT22;5865;48.776;9.280;2023-08-06T15:24:32;16.60;99.90
11619;DHT22;5865;48.776;9.280;2023-08-06T15:26:59;16.60;99.90
11619;DHT22;5865;48.776;9.280;2023-08-06T15:29:26;16.80;99.90
11619;DHT22;5865;48.776;9.280;2023-08-06T15:31:53;16.90;99.90
11619;DHT22;5865;48.776;9.280;2023-08-06T15:34:20;16.90;99.90
11619;DHT22;5865;48.776;9.280;2023-08-06T15:36:48;16.90;99.90
11619;DHT22;5865;48.776;9.280;2023-08-06T15:39:15;17.20;99.90
11619;DHT22;5865;48.776;9.280;2023-08-06T15:41:43;17.20;99.90
11619;DHT22;5865;48.776;9.280;2023-08-06T15:44:10;17.20;99.90
11619;DHT22;5865;48.776;9.280;2023-08-06T15:46:37;16.80;99.90
11619;DHT22;5865;48.776;9.280;2023-08-06T15:49:04;16.70;99.90
11619;DHT22;5865;48.776;9.280;2023-08-06T15:51:31;16.70;99.90
11619;DHT22;5865;48.776;9.280;2023-08-06T15:53:59;16.90;99.90
11619;DHT22;5865;48.776;9.280;2023-08-06T15:56:26;17.10;99.90
11619;DHT22;5865;48.776;9.280;2023-08-06T16:22:00;16.50;99.90
11619;DHT22;5865;48.776;9.280;2023-08-06T16:34:30;16.70;99.90
11619;DHT22;5865;48.776;9.280;2023-08-06T16:46:51;15.90;99.90
11619;DHT22;5865;48.776;9.280;2023-08-06T16:49:18;15.70;99.90
11619;DHT22;5865;48.776;9.280;2023-08-06T16:56:46;15.30;99.90
11619;DHT22;5865;48.776;9.280;2023-08-06T16:59:14;14.70;99.90
11619;DHT22;5865;48.776;9.280;2023-08-06T20:16:44;13.50;99.90
11619;DHT22;5865;48.776;9.280;2023-08-06T20:34:56;13.40;99.90
11619;DHT22;5865;48.776;9.280;2023-08-06T20:37:24;13.40;99.90
11619;DHT22;5865;48.776;9.280;2023-08-06T20:49:47;12.70;99.90
11619;DHT22;5865;48.776;9.280;2023-08-06T20:52:16;12.70;99.90
11619;DHT22;5865;48.776;9.280;2023-08-06T20:59:42;12.20;99.90
11619;DHT22;5865;48.776;9.280;2023-08-06T21:39:17;11.60;99.90
11619;DHT22;5865;48.776;9.280;2023-08-06T22:04:02;11.40;99.90
11619;DHT22;5865;48.776;9.280;2023-08-06T22:36:10;11.60;99.90
11619;DHT22;5865;48.776;9.280;2023-08-06T22:41:05;11.60;99.90
11619;DHT22;5865;48.776;9.280;2023-08-06T22:43:33;11.60;99.90
11619;DHT22;5865;48.776;9.280;2023-08-06T23:03:16;11.70;99.90
11619;DHT22;5865;48.776;9.280;2023-08-06T23:20:31;11.70;99.90
11619;DHT22;5865;48.776;9.280;2023-08-06T23:30:22;11.80;99.90
11619;DHT22;5865;48.776;9.280;2023-08-06T23:40:13;11.90;99.90
11619;DHT22;5865;48.776;9.280;2023-08-06T23:45:10;11.80;99.90
11619;DHT22;5865;48.776;9.280;2023-08-06T23:47:37;11.90;99.90
11619;DHT22;5865;48.776;9.280;2023-08-06T23:50:04;11.90;99.90
11619;DHT22;5865;48.776;9.280;2023-08-06T23:54:59;12.00;99.90
